Grayson, Louisiana
Current Conditions -  °F | °C
As of 9:53 PM on Wednesday 28 Jan 2015 (Local Time) from KMLU Reporting Station
Clear Clear  
Wind Chill: 57°   Ceiling: Unl
Heat Index: 57°   Visibility: 10mi
Dew Point: 42°   Wind: 9mph
Humidity: 57%   Direction: 210°SSW
Pressure: 30.16"   Gusts: NA
Location:  32.05°N, 92.11°W
Report Text: KMLU 290353Z AUTO 21008KT 10SM CLR 14/06 A3016 RMK AO2 SLP213 T01390056
Loading
Personal Weather Stations






























Interactive Weather Map New forecast layout! Learn more

10-Day Weather Forecast

Advertisements
Track Severe Weather on mobile